createdAt,value
2022-10-23T00:00:05.650Z,50.902367
2022-10-23T00:01:05.618Z,50.902355
2022-10-23T00:02:05.680Z,50.902374
2022-10-23T00:03:05.581Z,50.902370
2022-10-23T00:04:05.575Z,50.902344
2022-10-23T00:05:05.562Z,50.902363
2022-10-23T00:06:05.583Z,50.902367
2022-10-23T00:07:05.561Z,50.902351
2022-10-23T00:08:05.544Z,50.902332
2022-10-23T00:09:05.535Z,50.902359
2022-10-23T00:10:05.535Z,50.902370
2022-10-23T00:11:05.545Z,50.902359
2022-10-23T00:12:05.517Z,50.902374
2022-10-23T00:13:05.505Z,50.902363
2022-10-23T00:14:05.503Z,50.902351
2022-10-23T00:15:05.527Z,50.902370
2022-10-23T00:16:05.511Z,50.902378
2022-10-23T00:17:05.482Z,50.902382
2022-10-23T00:18:05.476Z,50.902355
2022-10-23T00:19:05.735Z,50.902386
2022-10-23T00:20:05.454Z,50.902340
2022-10-23T00:21:05.480Z,50.902336
2022-10-23T00:22:05.435Z,50.902393
2022-10-23T00:23:05.434Z,50.902401
2022-10-23T00:24:05.516Z,50.902386
2022-10-23T00:25:05.415Z,50.902393
2022-10-23T00:26:05.441Z,50.902397
2022-10-23T00:27:05.401Z,50.902405
2022-10-23T00:28:05.382Z,50.902393
2022-10-23T00:29:05.389Z,50.902390
2022-10-23T00:30:05.374Z,50.902363
2022-10-23T00:31:05.395Z,50.902374
2022-10-23T00:32:05.356Z,50.902405
2022-10-23T00:33:05.348Z,50.902390
2022-10-23T00:34:05.354Z,50.902382
2022-10-23T00:35:05.341Z,50.902386
2022-10-23T00:36:05.356Z,50.902370
2022-10-23T00:37:05.317Z,50.902393
2022-10-23T00:38:05.343Z,50.902382
2022-10-23T00:39:05.311Z,50.902382
2022-10-23T00:40:05.310Z,50.902382
2022-10-23T00:41:05.328Z,50.902386
2022-10-23T00:42:05.281Z,50.902390
2022-10-23T00:43:05.282Z,50.902397
2022-10-23T00:44:05.262Z,50.902390
2022-10-23T00:45:05.259Z,50.902397
2022-10-23T00:46:05.284Z,50.902412
2022-10-23T00:47:05.238Z,50.902416
2022-10-23T00:48:05.232Z,50.902409
2022-10-23T00:49:05.302Z,50.902409
2022-10-23T00:50:05.224Z,50.902397
2022-10-23T00:51:05.232Z,50.902397
2022-10-23T00:52:05.245Z,50.902382
2022-10-23T00:53:05.184Z,50.902409
2022-10-23T00:54:23.436Z,50.902382
2022-10-23T00:55:07.176Z,50.902386
2022-10-23T00:56:05.200Z,50.902397
2022-10-23T00:57:05.167Z,50.902390
2022-10-23T00:58:05.154Z,50.902370
2022-10-23T00:59:05.154Z,50.902382
2022-10-23T01:00:05.141Z,50.902382
2022-10-23T01:01:05.247Z,50.902382
2022-10-23T01:02:05.247Z,50.902393
2022-10-23T01:03:05.130Z,50.902386
2022-10-23T01:04:05.108Z,50.902386
2022-10-23T01:05:05.118Z,50.902390
2022-10-23T01:06:05.122Z,50.902397
2022-10-23T01:07:05.091Z,50.902378
2022-10-23T01:08:05.077Z,50.902393
2022-10-23T01:09:05.075Z,50.902382
2022-10-23T01:10:05.065Z,50.902382
2022-10-23T01:11:05.084Z,50.902386
2022-10-23T01:12:05.068Z,50.902397
2022-10-23T01:13:05.050Z,50.902386
2022-10-23T01:14:05.039Z,50.902378
2022-10-23T01:15:05.028Z,50.902412
2022-10-23T01:16:05.049Z,50.902412
2022-10-23T01:17:05.007Z,50.902363
2022-10-23T01:18:04.998Z,50.902397
2022-10-23T01:19:04.994Z,50.902447
2022-10-23T01:20:04.982Z,50.902420
2022-10-23T01:21:05.001Z,50.902390
2022-10-23T01:22:05.002Z,50.902405
2022-10-23T01:23:04.963Z,50.902420
2022-10-23T01:24:04.951Z,50.902393
2022-10-23T01:25:04.957Z,50.902420
2022-10-23T01:26:04.975Z,50.902412
2022-10-23T01:27:04.949Z,50.902405
2022-10-23T01:28:04.919Z,50.902405
2022-10-23T01:29:04.918Z,50.902405
2022-10-23T01:30:04.911Z,50.902420
2022-10-23T01:31:04.933Z,50.902431
2022-10-23T01:32:04.889Z,50.902420
2022-10-23T01:33:04.888Z,50.902424
2022-10-23T01:34:04.872Z,50.902401
2022-10-23T01:35:04.898Z,50.902412
2022-10-23T01:36:04.862Z,50.902397
2022-10-23T01:37:04.875Z,50.902416
2022-10-23T01:38:04.868Z,50.902401
2022-10-23T01:40:04.827Z,50.902458
2022-10-23T01:41:04.825Z,50.902420
2022-10-23T01:42:04.844Z,50.902409
2022-10-23T01:43:04.801Z,50.902431
2022-10-23T01:44:04.872Z,50.902428
2022-10-23T01:45:04.792Z,50.902416
2022-10-23T01:46:04.787Z,50.902435
2022-10-23T01:47:04.800Z,50.902420
2022-10-23T01:48:04.821Z,50.902412
2022-10-23T01:49:04.764Z,50.902428
2022-10-23T01:50:04.752Z,50.902447
2022-10-23T01:51:04.753Z,50.902443
2022-10-23T01:52:04.784Z,50.902439
2022-10-23T01:53:04.721Z,50.902431
2022-10-23T01:54:04.731Z,50.902428
2022-10-23T01:55:04.712Z,50.902447
2022-10-23T01:56:04.730Z,50.902439
2022-10-23T01:57:04.725Z,50.902451
2022-10-23T01:58:04.684Z,50.902470
2022-10-23T01:59:04.671Z,50.902428
2022-10-23T02:00:04.668Z,50.902416
2022-10-23T02:01:04.715Z,50.902466
2022-10-23T02:02:04.807Z,50.902435
2022-10-23T02:03:04.657Z,50.902447
2022-10-23T02:04:04.664Z,50.902466
2022-10-23T02:05:04.636Z,50.902462
2022-10-23T02:06:04.621Z,50.902481
2022-10-23T02:07:04.651Z,50.902504
2022-10-23T02:08:04.607Z,50.902489
2022-10-23T02:09:04.610Z,50.902470
2022-10-23T02:10:04.595Z,50.902439
2022-10-23T02:11:04.613Z,50.902443
2022-10-23T02:12:04.608Z,50.902412
2022-10-23T02:13:04.586Z,50.902405
2022-10-23T02:14:04.567Z,50.902428
2022-10-23T02:15:04.568Z,50.902443
2022-10-23T02:16:04.547Z,50.902424
2022-10-23T02:17:04.580Z,50.902439
2022-10-23T02:18:04.551Z,50.902473
2022-10-23T02:19:04.548Z,50.902428
2022-10-23T02:20:04.528Z,50.902405
2022-10-23T02:21:04.532Z,50.902405
2022-10-23T02:22:04.539Z,50.902439
2022-10-23T02:23:04.497Z,50.902431
2022-10-23T02:24:04.489Z,50.902451
2022-10-23T02:25:04.481Z,50.902462
2022-10-23T02:26:04.475Z,50.902466
2022-10-23T02:27:04.459Z,50.902451
2022-10-23T02:28:04.490Z,50.902470
2022-10-23T02:30:04.439Z,50.902378
2022-10-23T02:31:04.432Z,50.902412
2022-10-23T02:32:04.428Z,50.902443
2022-10-23T02:33:04.441Z,50.902454
2022-10-23T02:34:04.405Z,50.902451
2022-10-23T02:35:04.412Z,50.902458
2022-10-23T02:36:04.393Z,50.902454
2022-10-23T02:37:04.383Z,50.902393
2022-10-23T02:38:04.652Z,50.902416
2022-10-23T02:39:04.380Z,50.902451
2022-10-23T02:40:04.375Z,50.902424
2022-10-23T02:41:04.360Z,50.902424
2022-10-23T02:42:04.344Z,50.902451
2022-10-23T02:43:04.365Z,50.902447
2022-10-23T02:44:04.326Z,50.902439
2022-10-23T02:45:04.318Z,50.902443
2022-10-23T02:46:04.315Z,50.902428
2022-10-23T02:47:04.313Z,50.902416
2022-10-23T02:48:04.315Z,50.902409
2022-10-23T02:49:04.290Z,50.902367
2022-10-23T02:50:04.281Z,50.902359
2022-10-23T02:51:04.265Z,50.902340
2022-10-23T02:52:04.258Z,50.902412
2022-10-23T02:53:04.283Z,50.902321
2022-10-23T02:54:04.249Z,50.902336
2022-10-23T02:55:04.241Z,50.902451
2022-10-23T02:56:04.232Z,50.902386
2022-10-23T02:57:04.256Z,50.902370
2022-10-23T02:58:04.255Z,50.902386
2022-10-23T02:59:04.209Z,50.902405
2022-10-23T03:00:04.210Z,50.902386
2022-10-23T03:01:04.234Z,50.902424
2022-10-23T03:02:04.312Z,50.902409
2022-10-23T03:03:04.207Z,50.902424
2022-10-23T03:04:04.177Z,50.902428
2022-10-23T03:05:04.161Z,50.902390
2022-10-23T03:06:04.156Z,50.902435
2022-10-23T03:07:04.146Z,50.902420
2022-10-23T03:08:04.170Z,50.902420
2022-10-23T03:09:04.156Z,50.902447
2022-10-23T03:10:04.121Z,50.902409
2022-10-23T03:11:04.115Z,50.902428
2022-10-23T03:12:04.103Z,50.902416
2022-10-23T03:13:04.133Z,50.902424
2022-10-23T03:14:04.092Z,50.902439
2022-10-23T03:15:04.083Z,50.902412
2022-10-23T03:16:04.080Z,50.902443
2022-10-23T03:17:04.067Z,50.902470
2022-10-23T03:18:04.086Z,50.902420
2022-10-23T03:19:04.085Z,50.902416
2022-10-23T03:20:04.069Z,50.902382
2022-10-23T03:21:04.046Z,50.902374
2022-10-23T03:22:04.041Z,50.902378
2022-10-23T03:23:04.044Z,50.902382
2022-10-23T03:24:04.016Z,50.902382
2022-10-23T03:25:04.004Z,50.902397
2022-10-23T03:26:03.999Z,50.902367
2022-10-23T03:27:03.994Z,50.902382
2022-10-23T03:28:04.017Z,50.902374
2022-10-23T03:29:03.974Z,50.902374
2022-10-23T03:30:03.966Z,50.902367
2022-10-23T03:31:03.959Z,50.902386
2022-10-23T03:32:03.956Z,50.902386
2022-10-23T03:33:03.979Z,50.902374
2022-10-23T03:34:06.291Z,50.902397
2022-10-23T03:35:03.929Z,50.902382
2022-10-23T03:36:03.917Z,50.902420
2022-10-23T03:37:03.908Z,50.902409
2022-10-23T03:38:03.943Z,50.902409
2022-10-23T03:39:03.907Z,50.902412
2022-10-23T03:40:03.964Z,50.902428
2022-10-23T03:41:03.886Z,50.902424
2022-10-23T03:42:03.873Z,50.902405
2022-10-23T03:43:03.917Z,50.902401
2022-10-23T03:45:03.872Z,50.902401
2022-10-23T03:46:03.848Z,50.902424
2022-10-23T03:47:03.872Z,50.902409
2022-10-23T03:48:03.900Z,50.902401
2022-10-23T03:49:03.825Z,50.902401
2022-10-23T03:50:03.813Z,50.902409
2022-10-23T03:51:03.813Z,50.902412
2022-10-23T03:52:03.804Z,50.902401
2022-10-23T03:53:03.840Z,50.902405
2022-10-23T03:54:03.793Z,50.902412
2022-10-23T03:55:03.793Z,50.902420
2022-10-23T03:56:03.769Z,50.902401
2022-10-23T03:57:04.780Z,50.902424
2022-10-23T03:58:03.753Z,50.902420
2022-10-23T03:59:03.777Z,50.902428
2022-10-23T04:00:03.739Z,50.902363
2022-10-23T04:01:03.838Z,50.902390
2022-10-23T04:02:03.857Z,50.902401
2022-10-23T04:03:03.715Z,50.902416
2022-10-23T04:04:03.735Z,50.902416
2022-10-23T04:05:03.711Z,50.902420
2022-10-23T04:06:03.706Z,50.902428
2022-10-23T04:07:03.691Z,50.902412
2022-10-23T04:08:03.681Z,50.902412
2022-10-23T04:09:03.721Z,50.902424
2022-10-23T04:10:03.668Z,50.902416
2022-10-23T04:11:03.663Z,50.902412
2022-10-23T04:12:03.652Z,50.902409
2022-10-23T04:13:03.653Z,50.902382
2022-10-23T04:14:03.670Z,50.902374
2022-10-23T04:15:03.639Z,50.902390
2022-10-23T04:16:03.615Z,50.902405
2022-10-23T04:17:03.623Z,50.902401
2022-10-23T04:18:03.608Z,50.902386
2022-10-23T04:19:03.622Z,50.902390
2022-10-23T04:20:03.598Z,50.902382
2022-10-23T04:21:03.618Z,50.902348
2022-10-23T04:22:03.572Z,50.902439
2022-10-23T04:23:03.579Z,50.902405
2022-10-23T04:24:03.594Z,50.902420
2022-10-23T04:25:03.564Z,50.902382
2022-10-23T04:26:03.566Z,50.902397
2022-10-23T04:27:03.557Z,50.902382
2022-10-23T04:28:03.538Z,50.902382
2022-10-23T04:29:03.565Z,50.902374
2022-10-23T04:30:03.521Z,50.902370
2022-10-23T04:31:03.509Z,50.902405
2022-10-23T04:32:03.502Z,50.902439
2022-10-23T04:33:03.510Z,50.902443
2022-10-23T04:34:03.548Z,50.902386
2022-10-23T04:35:04.303Z,50.902397
2022-10-23T04:36:03.477Z,50.902458
2022-10-23T04:37:03.464Z,50.902405
2022-10-23T04:38:03.460Z,50.902390
2022-10-23T04:39:03.481Z,50.902386
2022-10-23T04:40:03.448Z,50.902393
2022-10-23T04:41:03.485Z,50.902390
2022-10-23T04:42:03.446Z,50.902378
2022-10-23T04:43:03.415Z,50.902382
2022-10-23T04:44:03.440Z,50.902382
2022-10-23T04:45:03.408Z,50.902416
2022-10-23T04:46:03.395Z,50.902390
2022-10-23T04:47:03.390Z,50.902378
2022-10-23T04:48:03.386Z,50.902374
2022-10-23T04:49:03.405Z,50.902374
2022-10-23T04:50:03.358Z,50.902367
2022-10-23T04:51:03.376Z,50.902397
2022-10-23T04:52:03.351Z,50.902405
2022-10-23T04:53:03.338Z,50.902416
2022-10-23T04:54:03.363Z,50.902401
2022-10-23T04:55:03.337Z,50.902401
2022-10-23T04:56:03.321Z,50.902412
2022-10-23T04:57:03.331Z,50.902420
2022-10-23T04:58:03.315Z,50.902390
2022-10-23T04:59:03.322Z,50.902374
2022-10-23T05:00:03.309Z,50.902397
2022-10-23T05:01:03.363Z,50.902405
2022-10-23T05:02:03.270Z,50.902405
2022-10-23T05:03:03.266Z,50.902409
2022-10-23T05:04:03.280Z,50.902412
2022-10-23T05:05:03.248Z,50.902397
2022-10-23T05:06:03.250Z,50.902405
2022-10-23T05:07:03.237Z,50.902420
2022-10-23T05:08:03.234Z,50.902405
2022-10-23T05:09:03.252Z,50.902397
2022-10-23T05:10:03.214Z,50.902378
2022-10-23T05:11:03.199Z,50.902409
2022-10-23T05:12:03.196Z,50.902393
2022-10-23T05:13:03.196Z,50.902386
2022-10-23T05:14:03.205Z,50.902382
2022-10-23T05:15:03.189Z,50.902367
2022-10-23T05:16:03.170Z,50.902359
2022-10-23T05:17:03.153Z,50.902367
2022-10-23T05:18:03.149Z,50.902378
2022-10-23T05:19:03.170Z,50.902348
2022-10-23T05:20:03.144Z,50.902367
2022-10-23T05:21:03.133Z,50.902393
2022-10-23T05:22:03.127Z,50.902374
2022-10-23T05:23:03.110Z,50.902370
2022-10-23T05:24:03.147Z,50.902344
2022-10-23T05:25:03.096Z,50.902348
2022-10-23T05:26:03.093Z,50.902340
2022-10-23T05:27:03.096Z,50.902355
2022-10-23T05:28:03.069Z,50.902348
2022-10-23T05:29:03.085Z,50.902359
2022-10-23T05:30:03.054Z,50.902363
2022-10-23T05:31:03.045Z,50.902367
2022-10-23T05:32:03.032Z,50.902374
2022-10-23T05:33:04.029Z,50.902374
2022-10-23T05:34:03.054Z,50.902390
2022-10-23T05:35:03.024Z,50.902386
2022-10-23T05:36:03.006Z,50.902382
2022-10-23T05:37:03.015Z,50.902397
2022-10-23T05:38:03.011Z,50.902390
2022-10-23T05:39:03.013Z,50.902409
2022-10-23T05:40:02.985Z,50.902397
2022-10-23T05:41:02.971Z,50.902405
2022-10-23T05:42:02.962Z,50.902401
2022-10-23T05:43:02.957Z,50.902390
2022-10-23T05:44:02.972Z,50.902382
2022-10-23T05:45:02.941Z,50.902374
2022-10-23T05:46:02.920Z,50.902382
2022-10-23T05:47:03.949Z,50.902370
2022-10-23T05:48:11.041Z,50.902382
2022-10-23T05:49:04.938Z,50.902401
2022-10-23T05:50:02.901Z,50.902409
2022-10-23T05:51:02.893Z,50.902416
2022-10-23T05:52:02.886Z,50.902428
2022-10-23T05:53:02.880Z,50.902386
2022-10-23T05:54:02.943Z,50.902374
2022-10-23T05:55:02.861Z,50.902397
2022-10-23T05:56:02.851Z,50.902401
2022-10-23T05:57:02.867Z,50.902409
2022-10-23T05:58:02.863Z,50.902382
2022-10-23T05:59:02.839Z,50.902367
2022-10-23T06:00:02.909Z,50.902390
2022-10-23T06:01:02.875Z,50.902393
2022-10-23T06:02:02.971Z,50.902390
2022-10-23T06:03:02.800Z,50.902397
2022-10-23T06:04:02.849Z,50.902390
2022-10-23T06:05:02.817Z,50.902393
2022-10-23T06:06:02.778Z,50.902397
2022-10-23T06:07:02.780Z,50.902397
2022-10-23T06:08:02.823Z,50.902370
2022-10-23T06:09:02.750Z,50.902386
2022-10-23T06:10:02.778Z,50.902390
2022-10-23T06:11:02.728Z,50.902405
2022-10-23T06:12:03.724Z,50.902424
2022-10-23T06:13:02.717Z,50.902409
2022-10-23T06:14:02.720Z,50.902435
2022-10-23T06:15:02.732Z,50.902405
2022-10-23T06:16:02.697Z,50.902416
2022-10-23T06:17:02.693Z,50.902405
2022-10-23T06:18:02.686Z,50.902428
2022-10-23T06:19:02.680Z,50.902431
2022-10-23T06:20:02.695Z,50.902420
2022-10-23T06:21:02.666Z,50.902355
2022-10-23T06:22:02.671Z,50.902420
2022-10-23T06:23:02.658Z,50.902431
2022-10-23T06:24:02.642Z,50.902447
2022-10-23T06:25:02.662Z,50.902412
2022-10-23T06:26:02.627Z,50.902401
2022-10-23T06:27:02.616Z,50.902405
2022-10-23T06:28:02.613Z,50.902401
2022-10-23T06:29:02.603Z,50.902431
2022-10-23T06:30:02.615Z,50.902401
2022-10-23T06:31:02.594Z,50.902397
2022-10-23T06:32:03.659Z,50.902397
2022-10-23T06:33:04.614Z,50.902424
2022-10-23T06:34:02.562Z,50.902405
2022-10-23T06:35:02.577Z,50.902416
2022-10-23T06:36:02.552Z,50.902405
2022-10-23T06:37:02.525Z,50.902397
2022-10-23T06:38:03.549Z,50.902420
2022-10-23T06:39:02.539Z,50.902405
2022-10-23T06:40:02.536Z,50.902401
2022-10-23T06:41:02.504Z,50.902424
2022-10-23T06:42:02.503Z,50.902443
2022-10-23T06:43:02.495Z,50.902420
2022-10-23T06:44:02.486Z,50.902420
2022-10-23T06:45:06.276Z,50.902431
2022-10-23T06:46:02.470Z,50.902439
2022-10-23T06:47:02.475Z,50.902401
2022-10-23T06:48:02.452Z,50.902405
2022-10-23T06:49:02.446Z,50.902424
2022-10-23T06:50:02.464Z,50.902420
2022-10-23T06:51:02.432Z,50.902428
2022-10-23T06:52:02.424Z,50.902447
2022-10-23T06:53:02.420Z,50.902393
2022-10-23T06:54:02.402Z,50.902431
2022-10-23T06:55:02.434Z,50.902424
2022-10-23T06:56:02.389Z,50.902431
2022-10-23T06:57:02.391Z,50.902416
2022-10-23T06:58:02.377Z,50.902390
2022-10-23T06:59:02.370Z,50.902374
2022-10-23T07:00:02.406Z,50.902401
2022-10-23T07:01:02.503Z,50.902409
2022-10-23T07:02:02.368Z,50.902405
2022-10-23T07:03:02.355Z,50.902428
2022-10-23T07:04:02.335Z,50.902424
2022-10-23T07:05:02.357Z,50.902409
2022-10-23T07:06:02.317Z,50.902416
2022-10-23T07:07:02.315Z,50.902409
2022-10-23T07:08:02.337Z,50.902424
2022-10-23T07:09:02.290Z,50.902447
2022-10-23T07:10:02.423Z,50.902428
2022-10-23T07:11:02.284Z,50.902428
2022-10-23T07:12:02.264Z,50.902428
2022-10-23T07:13:02.268Z,50.902420
2022-10-23T07:14:02.263Z,50.902454
2022-10-23T07:15:02.282Z,50.902458
2022-10-23T07:16:02.233Z,50.902428
2022-10-23T07:17:02.238Z,50.902409
2022-10-23T07:18:02.234Z,50.902439
2022-10-23T07:19:02.222Z,50.902431
2022-10-23T07:20:02.261Z,50.902431
2022-10-23T07:21:02.206Z,50.902443
2022-10-23T07:22:02.200Z,50.902390
2022-10-23T07:23:02.196Z,50.902424
2022-10-23T07:24:02.184Z,50.902431
2022-10-23T07:25:02.200Z,50.902428
2022-10-23T07:26:02.167Z,50.902428
2022-10-23T07:27:02.160Z,50.902416
2022-10-23T07:28:02.153Z,50.902439
2022-10-23T07:29:02.138Z,50.902462
2022-10-23T07:30:02.175Z,50.902416
2022-10-23T07:31:02.134Z,50.902390
2022-10-23T07:32:02.126Z,50.902435
2022-10-23T07:33:02.111Z,50.902428
2022-10-23T07:34:02.110Z,50.902439
2022-10-23T07:35:02.192Z,50.902443
2022-10-23T07:36:02.093Z,50.902462
2022-10-23T07:37:02.081Z,50.902458
2022-10-23T07:38:02.082Z,50.902454
2022-10-23T07:39:02.094Z,50.902454
2022-10-23T07:40:02.116Z,50.902439
2022-10-23T07:41:02.051Z,50.902462
2022-10-23T07:42:02.046Z,50.902443
2022-10-23T07:43:02.048Z,50.902428
2022-10-23T07:44:02.040Z,50.902401
2022-10-23T07:45:02.051Z,50.902382
2022-10-23T07:46:02.019Z,50.902382
2022-10-23T07:47:02.013Z,50.902409
2022-10-23T07:48:02.007Z,50.902405
2022-10-23T07:49:01.993Z,50.902397
2022-10-23T07:50:02.016Z,50.902416
2022-10-23T07:51:01.987Z,50.902435
2022-10-23T07:53:01.971Z,50.902431
2022-10-23T07:54:01.955Z,50.902443
2022-10-23T07:55:01.998Z,50.902443
2022-10-23T07:56:01.965Z,50.902412
2022-10-23T07:57:01.963Z,50.902424
2022-10-23T07:58:01.927Z,50.902428
2022-10-23T07:59:01.928Z,50.902473
2022-10-23T08:00:01.931Z,50.902435
2022-10-23T08:01:01.921Z,50.902454
2022-10-23T08:02:02.051Z,50.902481
2022-10-23T08:03:01.889Z,50.902447
2022-10-23T08:04:01.875Z,50.902451
2022-10-23T08:05:02.744Z,50.902451
2022-10-23T08:06:01.866Z,50.902447
2022-10-23T08:07:01.883Z,50.902416
2022-10-23T08:08:01.843Z,50.902405
2022-10-23T08:09:05.361Z,50.902416
2022-10-23T08:10:01.836Z,50.902416
2022-10-23T08:11:01.822Z,50.902416
2022-10-23T08:12:01.863Z,50.902416
2022-10-23T08:13:01.826Z,50.902420
2022-10-23T08:14:01.807Z,50.902451
2022-10-23T08:15:01.797Z,50.902405
2022-10-23T08:16:01.788Z,50.902405
2022-10-23T08:18:01.771Z,50.902424
2022-10-23T08:19:01.761Z,50.902428
2022-10-23T08:20:01.759Z,50.902431
2022-10-23T08:21:01.748Z,50.902428
2022-10-23T08:22:01.740Z,50.902428
2022-10-23T08:23:01.764Z,50.902424
2022-10-23T08:24:01.728Z,50.902428
2022-10-23T08:25:01.719Z,50.902435
2022-10-23T08:26:01.716Z,50.902439
2022-10-23T08:27:01.700Z,50.902439
2022-10-23T08:28:04.272Z,50.902439
2022-10-23T08:29:02.693Z,50.902428
2022-10-23T08:30:01.674Z,50.902412
2022-10-23T08:31:01.675Z,50.902424
2022-10-23T08:32:01.658Z,50.902420
2022-10-23T08:33:01.682Z,50.902424
2022-10-23T08:34:01.645Z,50.902431
2022-10-23T08:35:01.643Z,50.902439
2022-10-23T08:36:01.644Z,50.902443
2022-10-23T08:37:01.619Z,50.902420
2022-10-23T08:38:01.639Z,50.902443
2022-10-23T08:39:01.611Z,50.902439
2022-10-23T08:40:01.727Z,50.902420
2022-10-23T08:41:01.589Z,50.902447
2022-10-23T08:42:01.660Z,50.902428
2022-10-23T08:43:01.604Z,50.902428
2022-10-23T08:44:01.564Z,50.902420
2022-10-23T08:45:01.586Z,50.902420
2022-10-23T08:46:03.359Z,50.902435
2022-10-23T08:47:01.547Z,50.902424
2022-10-23T08:48:01.585Z,50.902443
2022-10-23T08:49:01.539Z,50.902428
2022-10-23T08:50:01.522Z,50.902424
2022-10-23T08:51:01.512Z,50.902428
2022-10-23T08:52:01.503Z,50.902420
2022-10-23T08:53:01.528Z,50.902416
2022-10-23T08:54:01.483Z,50.902420
2022-10-23T08:55:01.477Z,50.902420
2022-10-23T08:56:01.467Z,50.902416
2022-10-23T08:57:01.456Z,50.902431
2022-10-23T08:58:01.481Z,50.902409
2022-10-23T08:59:01.450Z,50.902401
2022-10-23T09:00:01.436Z,50.902370
2022-10-23T09:01:01.543Z,50.902374
2022-10-23T09:02:01.605Z,50.902409
2022-10-23T09:03:01.433Z,50.902401
2022-10-23T09:04:01.401Z,50.902382
2022-10-23T09:05:01.405Z,50.902420
2022-10-23T09:06:01.393Z,50.902351
2022-10-23T09:07:01.419Z,50.902409
2022-10-23T09:08:01.396Z,50.902397
2022-10-23T09:09:01.371Z,50.902386
2022-10-23T09:10:01.366Z,50.902401
2022-10-23T09:11:01.352Z,50.902336
2022-10-23T09:12:01.337Z,50.902386
2022-10-23T09:13:01.366Z,50.902382
2022-10-23T09:14:01.319Z,50.902367
2022-10-23T09:15:01.314Z,50.902451
2022-10-23T09:16:01.337Z,50.902374
2022-10-23T09:17:01.374Z,50.902370
2022-10-23T09:18:01.360Z,50.902397
2022-10-23T09:19:01.285Z,50.902412
2022-10-23T09:20:01.278Z,50.902405
2022-10-23T09:21:01.270Z,50.902420
2022-10-23T09:22:01.264Z,50.902386
2022-10-23T09:23:01.286Z,50.902409
2022-10-23T09:24:01.250Z,50.902405
2022-10-23T09:25:01.246Z,50.902405
2022-10-23T09:26:01.248Z,50.902405
2022-10-23T09:27:01.286Z,50.902390
2022-10-23T09:28:01.510Z,50.902405
2022-10-23T09:29:01.220Z,50.902401
2022-10-23T09:30:01.267Z,50.902401
2022-10-23T09:31:01.270Z,50.902393
2022-10-23T09:32:01.185Z,50.902393
2022-10-23T09:33:01.218Z,50.902412
2022-10-23T09:34:01.175Z,50.902428
2022-10-23T09:35:01.174Z,50.902454
2022-10-23T09:36:01.157Z,50.902409
2022-10-23T09:37:01.161Z,50.902401
2022-10-23T09:38:01.145Z,50.902367
2022-10-23T09:39:01.158Z,50.902397
2022-10-23T09:40:01.192Z,50.902458
2022-10-23T09:41:01.133Z,50.902424
2022-10-23T09:42:01.124Z,50.902416
2022-10-23T09:43:01.122Z,50.902405
2022-10-23T09:44:01.126Z,50.902397
2022-10-23T09:45:01.100Z,50.902378
2022-10-23T09:46:01.086Z,50.902386
2022-10-23T09:47:01.098Z,50.902416
2022-10-23T09:48:01.073Z,50.902405
2022-10-23T09:49:03.568Z,50.902386
2022-10-23T09:50:01.053Z,50.902412
2022-10-23T09:51:01.039Z,50.902405
2022-10-23T09:52:01.034Z,50.902359
2022-10-23T09:53:01.028Z,50.902405
2022-10-23T09:54:01.046Z,50.902416
2022-10-23T09:55:01.015Z,50.902409
2022-10-23T09:56:00.999Z,50.902386
2022-10-23T09:57:00.996Z,50.902416
2022-10-23T09:58:01.043Z,50.902401
2022-10-23T09:59:01.017Z,50.902405
2022-10-23T10:00:00.972Z,50.902420
2022-10-23T10:01:01.100Z,50.902409
2022-10-23T10:02:01.146Z,50.902424
2022-10-23T10:03:00.969Z,50.902504
2022-10-23T10:04:00.967Z,50.902424
2022-10-23T10:05:00.930Z,50.902401
2022-10-23T10:06:00.930Z,50.902409
2022-10-23T10:07:00.993Z,50.902409
2022-10-23T10:08:00.946Z,50.902489
2022-10-23T10:09:00.939Z,50.902435
2022-10-23T10:10:00.894Z,50.902458
2022-10-23T10:11:00.913Z,50.902416
2022-10-23T10:12:00.878Z,50.902420
2022-10-23T10:13:00.885Z,50.902409
2022-10-23T10:14:00.900Z,50.902393
2022-10-23T10:15:00.865Z,50.902393
2022-10-23T10:16:01.868Z,50.902393
2022-10-23T10:17:00.837Z,50.902405
2022-10-23T10:18:00.829Z,50.902420
2022-10-23T10:19:00.867Z,50.902397
2022-10-23T10:20:03.910Z,50.902390
2022-10-23T10:21:02.807Z,50.902439
2022-10-23T10:22:00.803Z,50.902416
2022-10-23T10:23:00.898Z,50.902420
2022-10-23T10:24:00.852Z,50.902439
2022-10-23T10:25:00.781Z,50.902401
2022-10-23T10:26:00.801Z,50.902332
2022-10-23T10:27:00.762Z,50.902355
2022-10-23T10:28:00.869Z,50.902409
2022-10-23T10:29:00.870Z,50.902401
2022-10-23T10:30:00.739Z,50.902397
2022-10-23T10:31:00.737Z,50.902428
2022-10-23T10:32:00.734Z,50.902397
2022-10-23T10:33:00.770Z,50.902405
2022-10-23T10:34:00.750Z,50.902382
2022-10-23T10:35:00.734Z,50.902431
2022-10-23T10:36:00.694Z,50.902393
2022-10-23T10:37:00.682Z,50.902378
2022-10-23T10:38:00.689Z,50.902412
2022-10-23T10:39:00.807Z,50.902416
2022-10-23T10:40:00.672Z,50.902397
2022-10-23T10:41:00.646Z,50.902401
2022-10-23T10:42:00.650Z,50.902367
2022-10-23T10:43:00.631Z,50.902370
2022-10-23T10:44:00.708Z,50.902428
2022-10-23T10:45:00.610Z,50.902409
2022-10-23T10:46:00.649Z,50.902451
2022-10-23T10:47:00.593Z,50.902416
2022-10-23T10:48:00.590Z,50.902416
2022-10-23T10:49:00.645Z,50.902344
2022-10-23T10:50:00.570Z,50.902420
2022-10-23T10:51:00.579Z,50.902378
2022-10-23T10:52:00.563Z,50.902359
2022-10-23T10:53:00.605Z,50.902378
2022-10-23T10:54:00.602Z,50.902397
2022-10-23T10:55:00.538Z,50.902355
2022-10-23T10:56:00.572Z,50.902367
2022-10-23T10:57:00.517Z,50.902382
2022-10-23T10:58:00.522Z,50.902397
2022-10-23T10:59:00.533Z,50.902431
2022-10-23T11:00:01.536Z,50.902382
2022-10-23T11:01:00.592Z,50.902344
2022-10-23T11:02:00.612Z,50.902344
2022-10-23T11:03:00.469Z,50.902325
2022-10-23T11:04:00.513Z,50.902344
2022-10-23T11:05:00.461Z,50.902367
2022-10-23T11:07:00.439Z,50.902363
2022-10-23T11:08:00.544Z,50.902348
2022-10-23T11:09:19.269Z,50.902367
2022-10-23T11:10:02.408Z,50.902367
2022-10-23T11:11:00.406Z,50.902378
2022-10-23T11:12:00.433Z,50.902348
2022-10-23T11:13:00.388Z,50.902378
2022-10-23T11:14:00.409Z,50.902374
2022-10-23T11:15:00.411Z,50.902382
2022-10-23T11:16:00.382Z,50.902374
2022-10-23T11:17:00.366Z,50.902378
2022-10-23T11:18:00.336Z,50.902359
2022-10-23T11:19:00.340Z,50.902367
2022-10-23T11:20:00.371Z,50.902359
2022-10-23T11:21:00.346Z,50.902386
2022-10-23T11:22:00.319Z,50.902355
2022-10-23T11:23:00.332Z,50.902363
2022-10-23T11:24:00.348Z,50.902374
2022-10-23T11:25:00.333Z,50.902386
2022-10-23T11:26:00.289Z,50.902374
2022-10-23T11:27:00.288Z,50.902363
2022-10-23T11:28:03.565Z,50.902386
2022-10-23T11:29:02.266Z,50.902355
2022-10-23T11:30:00.274Z,50.902340